Terminal Aerodrome Forecast
Issued by NWS

Home | Current Version | Previous Version | Text Only | Print | Product List | Glossary On
Versions: 1 2 3 4 5 6 7 8 9 10 11 12 13 14 15 16 17
776
FTUS43 KDTX 302320
TAFMBS
TAF
KMBS 302320Z 0100/0124 04012KT P6SM -RA OVC070
     FM010200 05011KT 4SM -RA BR OVC025
     FM010600 05011KT 3SM -RA BR OVC007
     FM011000 04010KT 4SM RA BR OVC012
     FM011500 05013KT 5SM -SHRA BR OVC015
     FM011900 04010KT P6SM OVC020=

USA.gov is the U.S. government's official web portal to all federal, state and local government web resources and services.